createdAt,value
2023-05-19T00:00:02.095Z,11.40
2023-05-19T00:03:00.542Z,11.37
2023-05-19T00:05:30.579Z,11.36
2023-05-19T00:07:59.376Z,11.37
2023-05-19T00:10:31.655Z,11.41
2023-05-19T00:13:00.221Z,11.44
2023-05-19T00:15:28.273Z,11.46
2023-05-19T00:17:56.655Z,11.49
2023-05-19T00:20:24.586Z,11.54
2023-05-19T00:22:52.316Z,11.58
2023-05-19T00:25:20.386Z,11.59
2023-05-19T00:27:48.215Z,11.57
2023-05-19T00:30:16.144Z,11.55
2023-05-19T00:32:44.304Z,11.54
2023-05-19T00:35:12.246Z,11.53
2023-05-19T00:37:40.068Z,11.55
2023-05-19T00:40:08.408Z,11.56
2023-05-19T00:42:36.271Z,11.57
2023-05-19T00:45:04.520Z,11.55
2023-05-19T00:47:32.435Z,11.52
2023-05-19T00:50:00.680Z,11.52
2023-05-19T00:52:28.752Z,11.50
2023-05-19T00:54:56.612Z,11.43
2023-05-19T00:57:24.603Z,11.35
2023-05-19T00:59:52.311Z,11.31
2023-05-19T01:02:21.594Z,11.28
2023-05-19T01:04:50.935Z,11.29
2023-05-19T01:07:19.921Z,11.33
2023-05-19T01:09:47.863Z,11.37
2023-05-19T01:12:16.523Z,11.35
2023-05-19T01:14:44.469Z,11.27
2023-05-19T01:17:20.728Z,11.22
2023-05-19T01:19:48.781Z,11.19
2023-05-19T01:22:23.045Z,11.20
2023-05-19T01:25:26.890Z,11.23
2023-05-19T01:28:08.254Z,11.27
2023-05-19T01:30:40.715Z,11.30
2023-05-19T01:33:10.639Z,11.33
2023-05-19T01:35:41.419Z,11.35
2023-05-19T01:38:10.354Z,11.35
2023-05-19T01:40:39.107Z,11.33
2023-05-19T01:43:07.904Z,11.33
2023-05-19T01:45:36.271Z,11.30
2023-05-19T01:48:05.319Z,11.29
2023-05-19T01:50:33.962Z,11.33
2023-05-19T01:53:02.143Z,11.34
2023-05-19T01:55:30.103Z,11.34
2023-05-19T01:58:17.917Z,11.38
2023-05-19T02:00:54.161Z,11.41
2023-05-19T02:03:29.697Z,11.43
2023-05-19T02:05:57.403Z,11.43
2023-05-19T02:08:38.673Z,11.42
2023-05-19T02:11:14.833Z,11.45
2023-05-19T02:13:44.456Z,11.49
2023-05-19T02:16:13.320Z,11.54
2023-05-19T02:18:45.780Z,11.52
2023-05-19T02:21:13.715Z,11.48
2023-05-19T02:23:41.994Z,11.47
2023-05-19T02:26:09.845Z,11.45
2023-05-19T02:28:37.566Z,11.47
2023-05-19T02:31:08.786Z,11.49
2023-05-19T02:33:37.716Z,11.51
2023-05-19T02:36:05.697Z,11.50
2023-05-19T02:38:33.402Z,11.49
2023-05-19T02:41:01.146Z,11.50
2023-05-19T02:43:30.624Z,11.48
2023-05-19T02:45:58.894Z,11.50
2023-05-19T02:48:27.513Z,11.48
2023-05-19T02:50:55.366Z,11.45
2023-05-19T02:53:23.129Z,11.40
2023-05-19T02:55:51.439Z,11.37
2023-05-19T02:58:20.590Z,11.36
2023-05-19T03:00:48.407Z,11.35
2023-05-19T03:03:16.517Z,11.32
2023-05-19T03:05:44.367Z,11.32
2023-05-19T03:08:12.131Z,11.32
2023-05-19T03:10:40.236Z,11.35
2023-05-19T03:13:08.010Z,11.38
2023-05-19T03:15:36.608Z,11.42
2023-05-19T03:18:04.913Z,11.43
2023-05-19T03:20:33.436Z,11.49
2023-05-19T03:23:01.641Z,11.56
2023-05-19T03:25:30.380Z,11.61
2023-05-19T03:27:58.150Z,11.63
2023-05-19T03:30:26.124Z,11.66
2023-05-19T03:33:03.653Z,11.72
2023-05-19T03:35:31.475Z,11.71
2023-05-19T03:37:59.519Z,11.67
2023-05-19T03:40:27.869Z,11.60
2023-05-19T03:43:01.304Z,11.55
2023-05-19T03:45:29.531Z,11.51
2023-05-19T03:47:57.641Z,11.51
2023-05-19T03:50:48.800Z,11.52
2023-05-19T03:53:23.976Z,11.52
2023-05-19T03:55:52.107Z,11.46
2023-05-19T03:58:20.385Z,11.45
2023-05-19T04:00:48.180Z,11.45
2023-05-19T04:03:16.501Z,11.49
2023-05-19T04:05:44.631Z,11.50
2023-05-19T04:08:12.479Z,11.50
2023-05-19T04:10:41.594Z,11.57
2023-05-19T04:13:09.386Z,11.64
2023-05-19T04:15:40.464Z,11.72
2023-05-19T04:18:09.885Z,11.76
2023-05-19T04:20:38.078Z,11.77
2023-05-19T04:23:05.960Z,11.83
2023-05-19T04:25:35.974Z,11.91
2023-05-19T04:28:04.212Z,12.03
2023-05-19T04:30:32.468Z,12.08
2023-05-19T04:33:01.223Z,12.24
2023-05-19T04:35:29.226Z,12.31
2023-05-19T04:37:58.608Z,12.31
2023-05-19T04:40:31.296Z,12.31
2023-05-19T04:43:02.001Z,12.26
2023-05-19T04:45:30.378Z,12.22
2023-05-19T04:48:00.573Z,12.25
2023-05-19T04:50:29.788Z,12.26
2023-05-19T04:52:59.345Z,12.27
2023-05-19T04:55:27.668Z,12.31
2023-05-19T04:57:56.148Z,12.35
2023-05-19T05:00:23.883Z,12.38
2023-05-19T05:02:58.905Z,12.36
2023-05-19T05:05:28.499Z,12.39
2023-05-19T05:07:57.483Z,12.44
2023-05-19T05:10:26.233Z,12.48
2023-05-19T05:12:54.539Z,12.47
2023-05-19T05:15:24.234Z,12.48
2023-05-19T05:17:52.380Z,12.47
2023-05-19T05:20:21.651Z,12.47
2023-05-19T05:22:49.522Z,12.51
2023-05-19T05:25:18.117Z,12.54
2023-05-19T05:27:46.190Z,12.56
2023-05-19T05:30:14.862Z,12.62
2023-05-19T05:32:43.136Z,12.63
2023-05-19T05:35:18.862Z,12.68
2023-05-19T05:37:46.859Z,12.70
2023-05-19T05:40:14.923Z,12.69
2023-05-19T05:42:43.413Z,12.79
2023-05-19T05:45:11.615Z,12.90
2023-05-19T05:47:41.576Z,13.02
2023-05-19T05:50:10.318Z,13.11
2023-05-19T05:52:39.562Z,13.20
2023-05-19T05:55:07.940Z,13.27
2023-05-19T05:57:36.582Z,13.32
2023-05-19T06:00:14.562Z,13.36
2023-05-19T06:02:50.709Z,13.38
2023-05-19T06:05:21.180Z,13.43
2023-05-19T06:07:49.512Z,13.53
2023-05-19T06:10:23.584Z,13.71
2023-05-19T06:12:51.412Z,13.93
2023-05-19T06:15:19.829Z,14.13
2023-05-19T06:17:58.142Z,14.26
2023-05-19T06:20:26.535Z,14.41
2023-05-19T06:22:55.026Z,14.55
2023-05-19T06:25:24.706Z,14.65
2023-05-19T06:27:53.192Z,14.70
2023-05-19T06:30:21.332Z,14.79
2023-05-19T06:33:13.832Z,14.95
2023-05-19T06:35:42.210Z,15.05
2023-05-19T06:38:10.164Z,15.13
2023-05-19T06:40:38.157Z,15.27
2023-05-19T06:43:06.243Z,15.41
2023-05-19T06:45:57.180Z,15.61
2023-05-19T06:48:26.347Z,15.87
2023-05-19T06:50:54.182Z,16.03
2023-05-19T06:53:22.462Z,16.10
2023-05-19T06:55:59.437Z,16.14
2023-05-19T06:58:31.289Z,16.18
2023-05-19T07:01:00.034Z,16.23
2023-05-19T07:03:31.700Z,16.26
2023-05-19T07:06:00.701Z,16.32
2023-05-19T07:08:29.558Z,16.39
2023-05-19T07:10:58.743Z,16.47
2023-05-19T07:13:27.483Z,16.50
2023-05-19T07:15:56.594Z,16.51
2023-05-19T07:18:25.583Z,16.58
2023-05-19T07:20:53.921Z,16.74
2023-05-19T07:23:22.021Z,16.87
2023-05-19T07:25:50.124Z,17.09
2023-05-19T07:28:17.968Z,17.34
2023-05-19T07:30:46.482Z,17.60
2023-05-19T07:33:16.438Z,17.86
2023-05-19T07:35:45.926Z,17.88
2023-05-19T07:38:13.949Z,17.89
2023-05-19T07:40:41.608Z,17.91
2023-05-19T07:43:09.507Z,17.90
2023-05-19T07:45:38.141Z,17.81
2023-05-19T07:48:06.456Z,17.77
2023-05-19T07:50:34.779Z,17.74
2023-05-19T07:53:03.161Z,17.83
2023-05-19T07:55:30.920Z,18.25
2023-05-19T07:57:58.976Z,18.65
2023-05-19T08:00:26.932Z,19.00
2023-05-19T08:02:57.319Z,19.35
2023-05-19T08:05:26.102Z,19.60
2023-05-19T08:07:53.971Z,19.81
2023-05-19T08:10:21.869Z,19.97
2023-05-19T08:12:49.700Z,20.18
2023-05-19T08:15:17.478Z,20.34
2023-05-19T08:17:45.524Z,20.48
2023-05-19T08:20:13.635Z,20.55
2023-05-19T08:22:41.923Z,20.62
2023-05-19T08:25:10.385Z,20.67
2023-05-19T08:27:38.164Z,20.68
2023-05-19T08:30:06.358Z,20.80
2023-05-19T08:32:34.391Z,20.97
2023-05-19T08:35:02.302Z,21.09
2023-05-19T08:37:32.048Z,21.13
2023-05-19T08:40:04.245Z,20.95
2023-05-19T08:42:33.235Z,20.76
2023-05-19T08:45:01.998Z,20.64
2023-05-19T08:47:30.141Z,20.61
2023-05-19T08:50:03.759Z,20.56
2023-05-19T08:52:35.779Z,20.52
2023-05-19T08:55:13.166Z,20.47
2023-05-19T08:57:41.641Z,20.40
2023-05-19T09:00:12.086Z,20.35
2023-05-19T09:02:50.405Z,20.26
2023-05-19T09:05:28.528Z,20.22
2023-05-19T09:07:57.382Z,20.28
2023-05-19T09:10:27.061Z,20.43
2023-05-19T09:12:55.101Z,20.83
2023-05-19T09:15:26.766Z,21.22
2023-05-19T09:18:06.927Z,21.48
2023-05-19T09:20:40.060Z,21.49
2023-05-19T09:23:08.405Z,21.51
2023-05-19T09:25:36.417Z,21.50
2023-05-19T09:28:04.269Z,21.46
2023-05-19T09:30:33.340Z,21.53
2023-05-19T09:33:01.402Z,21.54
2023-05-19T09:35:29.546Z,21.73
2023-05-19T09:37:57.554Z,22.00
2023-05-19T09:40:27.764Z,22.07
2023-05-19T09:42:55.972Z,22.05
2023-05-19T09:45:27.279Z,22.05
2023-05-19T09:47:55.140Z,22.05
2023-05-19T09:50:23.274Z,22.10
2023-05-19T09:52:53.180Z,22.26
2023-05-19T09:55:24.011Z,22.43
2023-05-19T09:57:52.999Z,22.48
2023-05-19T10:00:21.537Z,22.53
2023-05-19T10:02:50.878Z,22.81
2023-05-19T10:05:22.835Z,23.10
2023-05-19T10:07:52.726Z,23.24
2023-05-19T10:10:21.765Z,23.35
2023-05-19T10:12:50.004Z,23.58
2023-05-19T10:15:20.561Z,23.75
2023-05-19T10:17:50.000Z,23.84
2023-05-19T10:20:18.051Z,23.95
2023-05-19T10:22:46.511Z,23.95
2023-05-19T10:25:15.410Z,23.86
2023-05-19T10:27:44.969Z,23.80
2023-05-19T10:30:16.707Z,23.71
2023-05-19T10:32:46.749Z,23.68
2023-05-19T10:35:14.566Z,23.68
2023-05-19T10:38:01.010Z,23.69
2023-05-19T10:40:31.018Z,23.68
2023-05-19T10:43:07.449Z,23.63
2023-05-19T10:45:39.498Z,23.71
2023-05-19T10:48:10.971Z,23.90
2023-05-19T10:50:39.005Z,23.96
2023-05-19T10:53:14.092Z,23.94
2023-05-19T10:55:46.704Z,23.96
2023-05-19T10:58:14.873Z,24.11
2023-05-19T11:00:42.644Z,24.29
2023-05-19T11:03:19.068Z,24.56
2023-05-19T11:05:50.087Z,24.87
2023-05-19T11:08:31.765Z,25.09
2023-05-19T11:11:12.697Z,25.32
2023-05-19T11:13:43.098Z,25.53
2023-05-19T11:16:11.157Z,25.60
2023-05-19T11:18:39.308Z,25.54
2023-05-19T11:21:07.219Z,25.65
2023-05-19T11:23:38.179Z,25.67
2023-05-19T11:26:07.459Z,25.61
2023-05-19T11:28:36.618Z,25.69
2023-05-19T11:31:08.311Z,25.76
2023-05-19T11:33:36.056Z,25.64
2023-05-19T11:36:04.330Z,25.65
2023-05-19T11:38:32.920Z,25.75
2023-05-19T11:41:01.031Z,25.78
2023-05-19T11:43:28.989Z,25.81
2023-05-19T11:45:57.401Z,25.92
2023-05-19T11:48:26.531Z,25.96
2023-05-19T11:50:54.543Z,25.85
2023-05-19T11:53:23.379Z,25.79
2023-05-19T11:55:51.792Z,25.70
2023-05-19T11:58:25.792Z,25.56
2023-05-19T12:00:54.180Z,25.38
2023-05-19T12:03:22.891Z,25.20
2023-05-19T12:05:50.976Z,25.05
2023-05-19T12:08:19.181Z,24.94
2023-05-19T12:10:51.617Z,24.85
2023-05-19T12:13:19.932Z,24.74
2023-05-19T12:15:50.728Z,24.62
2023-05-19T12:18:19.433Z,24.56
2023-05-19T12:20:47.526Z,24.54
2023-05-19T12:23:15.791Z,24.48
2023-05-19T12:25:43.557Z,24.40
2023-05-19T12:28:11.670Z,24.30
2023-05-19T12:30:39.750Z,24.24
2023-05-19T12:33:08.639Z,24.20
2023-05-19T12:35:37.535Z,24.13
2023-05-19T12:38:06.467Z,24.01
2023-05-19T12:40:35.997Z,23.82
2023-05-19T12:43:04.657Z,23.54
2023-05-19T12:45:37.096Z,23.28
2023-05-19T12:48:06.952Z,23.03
2023-05-19T12:50:37.435Z,22.78
2023-05-19T12:53:08.748Z,22.56
2023-05-19T12:55:43.617Z,22.38
2023-05-19T12:58:11.910Z,22.27
2023-05-19T13:00:45.208Z,22.20
2023-05-19T13:03:17.520Z,22.23
2023-05-19T13:05:47.275Z,22.27
2023-05-19T13:08:19.966Z,22.34
2023-05-19T13:10:49.251Z,22.40
2023-05-19T13:13:17.231Z,22.46
2023-05-19T13:15:46.162Z,22.49
2023-05-19T13:18:14.386Z,22.53
2023-05-19T13:20:43.609Z,22.55
2023-05-19T13:23:11.725Z,22.60
2023-05-19T13:25:40.440Z,22.68
2023-05-19T13:28:08.593Z,22.75
2023-05-19T13:30:38.742Z,22.86
2023-05-19T13:33:06.654Z,23.01
2023-05-19T13:35:37.981Z,23.17
2023-05-19T13:38:07.069Z,23.27
2023-05-19T13:40:35.460Z,23.32
2023-05-19T13:43:04.322Z,23.35
2023-05-19T13:45:32.220Z,23.37
2023-05-19T13:48:00.698Z,23.39
2023-05-19T13:50:29.480Z,23.44
2023-05-19T13:52:57.730Z,23.48
2023-05-19T13:55:27.516Z,23.53
2023-05-19T13:57:55.615Z,23.57
2023-05-19T14:00:24.047Z,23.61
2023-05-19T14:02:51.956Z,23.62
2023-05-19T14:05:20.033Z,23.61
2023-05-19T14:07:47.920Z,23.58
2023-05-19T14:10:16.214Z,23.53
2023-05-19T14:13:08.061Z,23.47
2023-05-19T14:15:37.559Z,23.44
2023-05-19T14:18:06.960Z,23.39
2023-05-19T14:20:35.663Z,23.31
2023-05-19T14:23:04.131Z,23.24
2023-05-19T14:25:32.053Z,23.21
2023-05-19T14:28:00.262Z,23.16
2023-05-19T14:30:28.154Z,23.09
2023-05-19T14:32:56.223Z,23.06
2023-05-19T14:35:24.714Z,23.04
2023-05-19T14:37:52.616Z,23.03
2023-05-19T14:40:20.536Z,23.00
2023-05-19T14:42:48.781Z,23.00
2023-05-19T14:45:16.950Z,22.99
2023-05-19T14:47:44.926Z,22.97
2023-05-19T14:50:13.922Z,22.98
2023-05-19T14:52:41.873Z,22.98
2023-05-19T14:55:10.627Z,22.96
2023-05-19T14:57:38.785Z,22.95
2023-05-19T15:00:06.878Z,22.92
2023-05-19T15:02:34.957Z,22.89
2023-05-19T15:05:03.115Z,22.89
2023-05-19T15:07:30.952Z,22.90
2023-05-19T15:09:58.768Z,22.92
2023-05-19T15:12:26.784Z,22.91
2023-05-19T15:14:54.726Z,22.91
2023-05-19T15:17:22.740Z,22.93
2023-05-19T15:19:50.748Z,22.92
2023-05-19T15:22:18.706Z,22.90
2023-05-19T15:24:46.433Z,22.89
2023-05-19T15:27:14.697Z,22.85
2023-05-19T15:29:42.598Z,22.82
2023-05-19T15:32:10.501Z,22.78
2023-05-19T15:34:38.532Z,22.72
2023-05-19T15:37:06.431Z,22.68
2023-05-19T15:39:35.203Z,22.65
2023-05-19T15:42:03.043Z,22.63
2023-05-19T15:44:30.991Z,22.59
2023-05-19T15:46:59.014Z,22.56
2023-05-19T15:49:26.865Z,22.54
2023-05-19T15:51:54.839Z,22.53
2023-05-19T15:54:22.946Z,22.52
2023-05-19T15:56:50.740Z,22.54
2023-05-19T15:59:18.601Z,22.55
2023-05-19T16:01:46.457Z,22.56
2023-05-19T16:04:14.373Z,22.57
2023-05-19T16:06:42.145Z,22.57
2023-05-19T16:09:10.084Z,22.53
2023-05-19T16:11:37.950Z,22.45
2023-05-19T16:14:05.826Z,22.41
2023-05-19T16:16:33.921Z,22.38
2023-05-19T16:19:02.122Z,22.33
2023-05-19T16:21:30.025Z,22.27
2023-05-19T16:23:58.141Z,22.22
2023-05-19T16:26:26.508Z,22.15
2023-05-19T16:28:54.556Z,22.07
2023-05-19T16:31:23.016Z,22.02
2023-05-19T16:33:51.239Z,21.97
2023-05-19T16:36:19.886Z,21.93
2023-05-19T16:38:47.922Z,21.85
2023-05-19T16:41:16.037Z,21.77
2023-05-19T16:43:43.803Z,21.69
2023-05-19T16:46:12.504Z,21.61
2023-05-19T16:48:40.495Z,21.56
2023-05-19T16:51:08.311Z,21.51
2023-05-19T16:53:36.646Z,21.43
2023-05-19T16:56:04.792Z,21.35
2023-05-19T16:58:32.500Z,21.29
2023-05-19T17:01:00.555Z,21.25
2023-05-19T17:03:30.680Z,21.19
2023-05-19T17:05:58.497Z,21.13
2023-05-19T17:08:26.500Z,21.07
2023-05-19T17:10:54.402Z,21.05
2023-05-19T17:13:22.281Z,21.03
2023-05-19T17:15:52.536Z,21.00
2023-05-19T17:18:20.277Z,20.97
2023-05-19T17:20:47.969Z,20.94
2023-05-19T17:23:16.134Z,20.91
2023-05-19T17:25:44.156Z,20.89
2023-05-19T17:28:11.883Z,20.86
2023-05-19T17:30:40.317Z,20.83
2023-05-19T17:33:08.106Z,20.78
2023-05-19T17:35:36.326Z,20.73
2023-05-19T17:38:04.511Z,20.71
2023-05-19T17:40:33.398Z,20.69
2023-05-19T17:43:01.312Z,20.70
2023-05-19T17:45:29.729Z,20.67
2023-05-19T17:47:57.511Z,20.66
2023-05-19T17:50:25.753Z,20.62
2023-05-19T17:52:54.696Z,20.54
2023-05-19T17:55:22.740Z,20.42
2023-05-19T17:57:50.921Z,20.30
2023-05-19T18:00:19.617Z,20.16
2023-05-19T18:02:47.648Z,20.05
2023-05-19T18:05:16.050Z,19.93
2023-05-19T18:07:44.348Z,19.80
2023-05-19T18:10:14.308Z,19.65
2023-05-19T18:12:42.247Z,19.54
2023-05-19T18:15:10.476Z,19.44
2023-05-19T18:17:38.317Z,19.35
2023-05-19T18:20:06.731Z,19.27
2023-05-19T18:22:34.682Z,19.17
2023-05-19T18:25:02.378Z,19.11
2023-05-19T18:27:31.334Z,19.06
2023-05-19T18:29:59.298Z,18.98
2023-05-19T18:32:27.155Z,18.90
2023-05-19T18:34:54.951Z,18.83
2023-05-19T18:37:22.756Z,18.79
2023-05-19T18:39:50.810Z,18.77
2023-05-19T18:42:18.580Z,18.73
2023-05-19T18:44:50.926Z,18.72
2023-05-19T18:47:23.121Z,18.72
2023-05-19T18:49:51.181Z,18.72
2023-05-19T18:52:19.885Z,18.71
2023-05-19T18:54:47.865Z,18.70
2023-05-19T18:57:15.786Z,18.67
2023-05-19T18:59:43.479Z,18.63
2023-05-19T19:02:11.411Z,18.59
2023-05-19T19:04:39.468Z,18.46
2023-05-19T19:07:07.387Z,18.39
2023-05-19T19:09:35.037Z,18.37
2023-05-19T19:12:02.955Z,18.36
2023-05-19T19:14:31.038Z,18.34
2023-05-19T19:16:58.863Z,18.29
2023-05-19T19:19:29.789Z,18.27
2023-05-19T19:21:57.855Z,18.28
2023-05-19T19:24:26.486Z,18.29
2023-05-19T19:26:54.511Z,18.29
2023-05-19T19:29:22.400Z,18.28
2023-05-19T19:31:50.354Z,18.28
2023-05-19T19:34:19.999Z,18.27
2023-05-19T19:36:48.244Z,18.26
2023-05-19T19:39:16.869Z,18.24
2023-05-19T19:41:44.846Z,18.23
2023-05-19T19:44:13.712Z,18.21
2023-05-19T19:46:41.789Z,18.21
2023-05-19T19:49:09.797Z,18.22
2023-05-19T19:51:37.754Z,18.20
2023-05-19T19:54:05.692Z,18.18
2023-05-19T19:56:33.699Z,18.15
2023-05-19T19:59:01.562Z,18.12
2023-05-19T20:01:29.530Z,18.06
2023-05-19T20:03:57.878Z,18.00
2023-05-19T20:06:26.128Z,17.94
2023-05-19T20:08:54.216Z,17.86
2023-05-19T20:11:23.806Z,17.80
2023-05-19T20:13:52.312Z,17.74
2023-05-19T20:16:20.680Z,17.69
2023-05-19T20:18:48.831Z,17.64
2023-05-19T20:21:16.869Z,17.58
2023-05-19T20:23:44.845Z,17.56
2023-05-19T20:26:13.559Z,17.53
2023-05-19T20:28:41.775Z,17.52
2023-05-19T20:31:09.969Z,17.47
2023-05-19T20:33:38.002Z,17.44
2023-05-19T20:36:06.406Z,17.41
2023-05-19T20:38:34.342Z,17.38
2023-05-19T20:41:02.219Z,17.37
2023-05-19T20:43:32.101Z,17.36
2023-05-19T20:46:01.570Z,17.33
2023-05-19T20:48:29.662Z,17.33
2023-05-19T20:50:57.581Z,17.31
2023-05-19T20:53:25.437Z,17.29
2023-05-19T20:55:53.093Z,17.26
2023-05-19T20:58:21.326Z,17.22
2023-05-19T21:00:53.474Z,17.20
2023-05-19T21:03:23.395Z,17.17
2023-05-19T21:05:51.466Z,17.17
2023-05-19T21:08:19.363Z,17.16
2023-05-19T21:10:47.532Z,17.15
2023-05-19T21:13:15.390Z,17.11
2023-05-19T21:15:43.766Z,17.10
2023-05-19T21:18:12.042Z,17.09
2023-05-19T21:20:40.191Z,17.07
2023-05-19T21:23:08.143Z,17.07
2023-05-19T21:25:36.094Z,17.06
2023-05-19T21:28:04.192Z,17.05
2023-05-19T21:30:32.609Z,17.04
2023-05-19T21:33:01.012Z,17.05
2023-05-19T21:35:28.973Z,17.05
2023-05-19T21:37:56.885Z,17.08
2023-05-19T21:40:24.780Z,17.08
2023-05-19T21:42:52.507Z,17.08
2023-05-19T21:45:20.334Z,17.08
2023-05-19T21:47:48.591Z,17.07
2023-05-19T21:50:17.576Z,17.03
2023-05-19T21:52:45.882Z,16.97
2023-05-19T21:55:13.637Z,16.94
2023-05-19T21:57:41.570Z,16.91
2023-05-19T22:00:13.017Z,16.88
2023-05-19T22:02:41.262Z,16.84
2023-05-19T22:05:09.679Z,16.78
2023-05-19T22:07:37.888Z,16.71
2023-05-19T22:10:05.913Z,16.64
2023-05-19T22:12:34.070Z,16.58
2023-05-19T22:15:02.935Z,16.51
2023-05-19T22:17:30.765Z,16.47
2023-05-19T22:19:59.052Z,16.45
2023-05-19T22:22:26.792Z,16.43
2023-05-19T22:24:54.495Z,16.42
2023-05-19T22:27:22.338Z,16.42
2023-05-19T22:29:50.685Z,16.42
2023-05-19T22:32:19.602Z,16.42
2023-05-19T22:34:47.908Z,16.38
2023-05-19T22:37:15.813Z,16.35
2023-05-19T22:39:43.804Z,16.33
2023-05-19T22:42:11.704Z,16.33
2023-05-19T22:44:39.487Z,16.34
2023-05-19T22:47:13.293Z,16.34
2023-05-19T22:49:41.829Z,16.32
2023-05-19T22:52:10.432Z,16.29
2023-05-19T22:54:38.176Z,16.28
2023-05-19T22:57:06.639Z,16.26
2023-05-19T22:59:35.605Z,16.27
2023-05-19T23:02:04.176Z,16.27
2023-05-19T23:04:32.627Z,16.25
2023-05-19T23:07:00.845Z,16.23
2023-05-19T23:09:29.195Z,16.22
2023-05-19T23:11:56.992Z,16.22
2023-05-19T23:14:26.002Z,16.21
2023-05-19T23:16:53.840Z,16.19
2023-05-19T23:19:22.520Z,16.15
2023-05-19T23:21:50.447Z,16.10
2023-05-19T23:24:18.376Z,16.05
2023-05-19T23:26:46.215Z,16.03
2023-05-19T23:29:14.972Z,16.01
2023-05-19T23:31:43.488Z,16.00
2023-05-19T23:34:11.592Z,15.98
2023-05-19T23:36:39.517Z,15.97
2023-05-19T23:39:07.461Z,15.95
2023-05-19T23:41:37.036Z,15.93
2023-05-19T23:44:04.785Z,15.91
2023-05-19T23:46:32.695Z,15.91
2023-05-19T23:49:00.892Z,15.90
2023-05-19T23:51:28.580Z,15.89
2023-05-19T23:53:56.339Z,15.90
2023-05-19T23:56:24.352Z,15.92
2023-05-19T23:58:52.043Z,15.94
